createdAt,value
2023-02-03T13:56:22.894Z,40.90
2023-02-03T13:59:01.004Z,44.97
2023-02-03T14:01:46.575Z,44.10
2023-02-03T14:04:26.272Z,41.88
2023-02-03T14:06:53.884Z,43.92
2023-02-03T14:09:31.644Z,41.63
2023-02-03T14:12:31.054Z,41.17
2023-02-03T14:15:05.228Z,41.72
2023-02-03T14:20:26.075Z,40.78
2023-02-03T14:23:06.038Z,40.63
2023-02-03T14:25:59.185Z,40.28
2023-02-03T14:28:43.127Z,41.53
2023-02-03T14:31:17.207Z,39.90
2023-02-03T14:34:05.987Z,40.75
2023-02-03T14:36:41.873Z,41.40
2023-02-03T14:39:22.543Z,42.15
2023-02-03T14:41:55.168Z,37.22
2023-02-03T14:44:44.334Z,43.25
2023-02-03T14:47:36.464Z,42.63
2023-02-03T14:50:44.758Z,41.53
2023-02-03T14:53:39.086Z,39.05
2023-02-03T14:57:13.252Z,40.87
2023-02-03T14:59:49.309Z,41.97
2023-02-03T15:02:21.680Z,41.45
2023-02-03T15:04:52.971Z,41.47
2023-02-03T15:07:38.958Z,45.00
2023-02-03T15:10:29.304Z,46.13
2023-02-03T15:13:00.278Z,43.38
2023-02-03T15:15:31.579Z,44.58
2023-02-03T15:18:19.746Z,44.80
2023-02-03T15:20:54.600Z,45.83
2023-02-03T15:23:25.248Z,45.40
2023-02-03T15:26:01.407Z,47.08
2023-02-03T15:28:30.670Z,44.70
2023-02-03T15:31:01.467Z,46.65
2023-02-03T15:33:32.048Z,45.72
2023-02-03T15:36:06.328Z,45.85
2023-02-03T15:38:41.960Z,43.38
2023-02-03T15:41:26.615Z,46.10
2023-02-03T15:44:10.039Z,44.50
2023-02-03T15:46:50.144Z,46.25
2023-02-03T15:49:27.415Z,47.40
2023-02-03T15:52:17.622Z,45.55
2023-02-03T15:54:54.004Z,45.25
2023-02-03T15:57:34.170Z,44.92
2023-02-03T16:00:26.391Z,47.35
2023-02-03T16:02:55.505Z,45.08
2023-02-03T16:05:33.529Z,46.08
2023-02-03T16:08:28.730Z,45.58
2023-02-03T16:10:57.056Z,47.20
2023-02-03T16:13:27.304Z,45.85
2023-02-03T16:16:03.963Z,48.78
2023-02-03T16:18:36.243Z,46.65
2023-02-03T16:21:05.752Z,49.78
2023-02-03T16:23:33.754Z,44.83
2023-02-03T16:26:20.899Z,48.15
2023-02-03T16:29:16.476Z,46.28
2023-02-03T16:32:06.163Z,47.35
2023-02-03T16:34:53.093Z,46.78
2023-02-03T16:37:46.248Z,47.85
2023-02-03T16:40:41.491Z,47.00
2023-02-03T16:43:33.333Z,45.85
2023-02-03T16:46:21.351Z,46.47
2023-02-03T16:49:07.744Z,47.00
2023-02-03T16:51:42.131Z,48.75
2023-02-03T16:54:13.560Z,50.03
2023-02-03T16:56:42.299Z,46.33
2023-02-03T16:59:10.584Z,48.13
2023-02-03T17:01:38.886Z,46.97
2023-02-03T17:04:06.967Z,47.22
2023-02-03T17:06:38.817Z,46.63
2023-02-03T17:09:07.793Z,47.55
2023-02-03T17:11:35.899Z,48.53
2023-02-03T17:14:03.747Z,53.78
2023-02-03T17:16:33.481Z,48.83
2023-02-03T17:19:01.200Z,52.47
2023-02-03T17:21:29.793Z,55.22
2023-02-03T17:24:00.642Z,54.25
2023-02-03T17:26:28.664Z,55.17
2023-02-03T17:28:56.553Z,50.25
2023-02-03T17:31:24.217Z,55.60
2023-02-03T17:33:52.874Z,58.17
2023-02-03T17:36:21.984Z,51.83
2023-02-03T17:55:31.588Z,60.90
2023-02-03T17:57:59.550Z,59.72
2023-02-03T18:00:27.660Z,58.80
2023-02-03T18:02:56.867Z,59.30
2023-02-03T18:05:25.358Z,60.17
2023-02-03T18:07:53.004Z,58.08
2023-02-03T18:10:20.672Z,59.08
2023-02-03T18:12:48.397Z,62.17
2023-02-03T18:15:16.714Z,63.67
2023-02-03T18:17:44.398Z,60.28
2023-02-03T18:20:12.693Z,57.78
2023-02-03T18:22:40.475Z,57.28
2023-02-03T18:25:11.894Z,60.15
2023-02-03T18:27:42.068Z,60.20
2023-02-03T18:30:11.793Z,60.70
2023-02-03T18:32:39.511Z,59.33
2023-02-03T18:35:13.041Z,72.13
2023-02-03T18:37:40.829Z,62.10
2023-02-03T18:40:08.854Z,62.20
2023-02-03T18:42:36.653Z,63.65
2023-02-03T18:45:06.519Z,61.70
2023-02-03T18:47:35.377Z,61.38
2023-02-03T18:50:03.889Z,64.85
2023-02-03T18:52:31.530Z,64.70
2023-02-03T18:54:59.248Z,65.78
2023-02-03T18:57:26.974Z,65.07
2023-02-03T18:59:55.598Z,61.22
2023-02-03T19:02:25.908Z,65.90
2023-02-03T19:04:53.891Z,63.17
2023-02-03T19:07:22.677Z,64.32
2023-02-03T19:09:50.554Z,66.38
2023-02-03T19:12:18.456Z,66.82
2023-02-03T19:14:46.408Z,64.70
2023-02-03T19:17:14.334Z,63.08
2023-02-03T19:19:42.112Z,62.42
2023-02-03T19:22:12.051Z,64.45
2023-02-03T19:24:39.790Z,61.35
2023-02-03T19:27:07.547Z,64.88
2023-02-03T19:29:35.743Z,62.28
2023-02-03T19:32:03.742Z,61.38
2023-02-03T19:34:31.632Z,60.97
2023-02-03T19:37:00.681Z,58.83
2023-02-03T19:39:28.563Z,62.55
2023-02-03T19:41:56.283Z,60.72
2023-02-03T19:44:24.568Z,57.15
2023-02-03T19:46:52.620Z,56.03
2023-02-03T19:49:21.279Z,58.47
2023-02-03T19:51:49.100Z,55.45
2023-02-03T19:54:17.814Z,52.63
2023-02-03T19:56:46.717Z,53.30
2023-02-03T19:59:14.788Z,53.22
2023-02-03T20:01:42.601Z,52.08
2023-02-03T20:04:10.971Z,52.78
2023-02-03T20:06:38.863Z,51.72
2023-02-03T20:09:07.188Z,53.33
2023-02-03T20:11:34.979Z,54.78
2023-02-03T20:14:02.861Z,52.22
2023-02-03T20:16:30.707Z,52.22
2023-02-03T20:18:58.536Z,51.85
2023-02-03T20:21:26.512Z,50.92
2023-02-03T20:23:54.392Z,52.13
2023-02-03T20:26:22.242Z,47.58
2023-02-03T20:28:50.117Z,47.20
2023-02-03T20:31:17.963Z,50.30
2023-02-03T20:33:45.817Z,51.58
2023-02-03T20:36:13.578Z,47.55
2023-02-03T20:38:41.432Z,52.28
2023-02-03T20:41:12.476Z,50.65
2023-02-03T20:43:40.398Z,53.35
2023-02-03T20:46:17.340Z,49.42
2023-02-03T20:48:45.521Z,52.67
2023-02-03T20:51:19.179Z,55.78
2023-02-03T20:53:48.181Z,53.20
2023-02-03T20:56:21.488Z,54.97
2023-02-03T20:58:49.945Z,56.42
2023-02-03T21:01:21.847Z,57.42
2023-02-03T21:04:08.565Z,56.28
2023-02-03T21:06:36.665Z,54.50
2023-02-03T21:09:19.559Z,56.28
2023-02-03T21:11:47.428Z,56.15
2023-02-03T21:14:27.304Z,54.38
2023-02-03T21:16:55.468Z,54.15
2023-02-03T21:19:32.917Z,55.17
2023-02-03T21:22:15.168Z,55.65
2023-02-03T21:24:47.952Z,60.63
2023-02-03T21:27:22.562Z,61.90
2023-02-03T21:29:51.976Z,60.78
2023-02-03T21:32:19.828Z,62.42
2023-02-03T21:34:48.213Z,57.08
2023-02-03T21:37:24.728Z,60.20
2023-02-03T21:39:53.030Z,58.33
2023-02-03T21:42:43.421Z,61.17
2023-02-03T21:45:14.496Z,63.50
2023-02-03T21:47:47.099Z,63.13
2023-02-03T21:50:36.513Z,63.35
2023-02-03T21:53:10.655Z,63.55
2023-02-03T21:55:40.749Z,64.22
2023-02-03T21:58:23.641Z,65.75
2023-02-03T22:00:56.207Z,66.95
2023-02-03T22:03:38.513Z,64.32
2023-02-03T22:06:14.048Z,63.47
2023-02-03T22:08:47.507Z,60.58
2023-02-03T22:11:18.874Z,62.05
2023-02-03T22:13:48.282Z,64.38
2023-02-03T22:16:17.495Z,63.25
2023-02-03T22:18:48.995Z,65.38
2023-02-03T22:21:17.592Z,62.33
2023-02-03T22:23:45.350Z,64.43
2023-02-03T22:26:14.878Z,64.15
2023-02-03T22:28:43.247Z,68.00
2023-02-03T22:31:13.138Z,65.25
2023-02-03T22:33:42.431Z,64.30
2023-02-03T22:36:11.273Z,58.42
2023-02-03T22:38:40.411Z,63.50
2023-02-03T22:41:11.992Z,65.57
2023-02-03T22:43:40.658Z,64.53
2023-02-03T22:46:09.489Z,64.80
2023-02-03T22:48:37.445Z,64.07
2023-02-03T22:51:05.348Z,61.33
2023-02-03T22:53:33.226Z,65.63
2023-02-03T22:56:01.120Z,66.15
2023-02-03T22:58:28.886Z,62.70
2023-02-03T23:00:56.719Z,64.85
2023-02-03T23:03:24.507Z,64.63
2023-02-03T23:05:52.404Z,62.65
2023-02-03T23:08:20.196Z,66.43
2023-02-03T23:10:48.392Z,60.33
2023-02-03T23:13:16.276Z,63.67
2023-02-03T23:15:44.063Z,63.70
2023-02-03T23:18:11.930Z,63.15
2023-02-03T23:20:39.840Z,64.32
2023-02-03T23:23:07.854Z,58.88
2023-02-03T23:25:38.440Z,59.70
2023-02-03T23:28:06.604Z,56.20
2023-02-03T23:30:34.636Z,56.60
2023-02-03T23:33:03.026Z,59.67
2023-02-03T23:36:00.136Z,58.00
2023-02-03T23:38:28.134Z,58.72
2023-02-03T23:40:56.413Z,59.55
2023-02-03T23:43:24.617Z,57.97
2023-02-03T23:45:52.881Z,58.60
2023-02-03T23:48:20.919Z,57.85
2023-02-03T23:50:49.577Z,55.67
2023-02-03T23:53:17.944Z,57.28
2023-02-03T23:55:45.991Z,59.17
2023-02-03T23:58:14.245Z,55.75
